createdAt,value
2019-03-08T00:00:18.524Z,59.82
2019-03-08T00:02:50.787Z,59.57
2019-03-08T00:05:23.156Z,59.98
2019-03-08T00:07:54.437Z,59.78
2019-03-08T00:10:26.092Z,60.07
2019-03-08T00:12:57.340Z,60.03
2019-03-08T00:15:28.556Z,59.76
2019-03-08T00:17:59.924Z,59.61
2019-03-08T00:20:31.937Z,59.96
2019-03-08T00:23:03.166Z,59.96
2019-03-08T00:25:34.594Z,59.37
2019-03-08T00:28:05.850Z,59.15
2019-03-08T00:30:37.157Z,59.15
2019-03-08T00:33:09.222Z,58.74
2019-03-08T00:35:40.478Z,58.69
2019-03-08T00:38:11.975Z,58.30
2019-03-08T00:40:43.656Z,58.37
2019-03-08T00:43:15.691Z,57.86
2019-03-08T00:45:47.802Z,58.28
2019-03-08T00:48:19.543Z,57.96
2019-03-08T00:50:50.909Z,57.75
2019-03-08T00:53:23.161Z,57.26
2019-03-08T00:55:54.745Z,57.32
2019-03-08T00:58:26.586Z,57.55
2019-03-08T01:00:57.972Z,56.93
2019-03-08T01:03:29.256Z,57.26
2019-03-08T01:06:00.741Z,56.91
2019-03-08T01:08:32.022Z,57.52
2019-03-08T01:11:03.630Z,56.99
2019-03-08T01:13:34.857Z,56.84
2019-03-08T01:16:06.171Z,56.84
2019-03-08T01:18:37.871Z,56.92
2019-03-08T01:21:09.131Z,56.73
2019-03-08T01:23:40.733Z,56.90
2019-03-08T01:26:12.487Z,56.46
2019-03-08T01:28:44.085Z,56.51
2019-03-08T01:31:15.329Z,56.42
2019-03-08T01:33:46.672Z,56.53
2019-03-08T01:36:18.189Z,56.14
2019-03-08T01:38:49.429Z,56.36
2019-03-08T01:41:20.931Z,56.33
2019-03-08T01:43:52.786Z,56.31
2019-03-08T01:46:24.926Z,56.51
2019-03-08T01:48:56.518Z,56.70
2019-03-08T01:51:27.797Z,57.21
2019-03-08T01:53:59.065Z,57.56
2019-03-08T01:56:30.388Z,57.10
2019-03-08T01:59:02.225Z,56.82
2019-03-08T02:01:33.497Z,57.13
2019-03-08T02:04:04.770Z,57.59
2019-03-08T02:06:36.094Z,57.22
2019-03-08T02:09:08.361Z,57.06
2019-03-08T02:11:40.495Z,57.90
2019-03-08T02:14:11.777Z,57.38
2019-03-08T02:16:43.314Z,57.42
2019-03-08T02:19:14.775Z,57.46
2019-03-08T02:21:46.306Z,58.15
2019-03-08T02:24:17.927Z,57.92
2019-03-08T02:26:49.252Z,58.23
2019-03-08T02:29:20.776Z,58.32
2019-03-08T02:31:52.428Z,58.63
2019-03-08T02:34:24.123Z,58.64
2019-03-08T02:36:55.720Z,58.79
2019-03-08T02:39:27.371Z,59.01
2019-03-08T02:41:58.681Z,59.12
2019-03-08T02:44:29.974Z,59.42
2019-03-08T02:47:01.209Z,59.42
2019-03-08T02:49:35.522Z,59.63
2019-03-08T02:52:06.837Z,60.02
2019-03-08T02:54:38.562Z,59.88
2019-03-08T02:57:10.483Z,59.96
2019-03-08T02:59:42.319Z,59.94
2019-03-08T03:02:13.679Z,60.07
2019-03-08T03:04:45.168Z,60.07
2019-03-08T03:07:16.420Z,60.33
2019-03-08T03:09:47.745Z,60.18
2019-03-08T03:12:19.035Z,60.18
2019-03-08T03:14:50.622Z,60.56
2019-03-08T03:17:22.170Z,60.75
2019-03-08T03:19:53.510Z,61.04
2019-03-08T03:22:24.725Z,61.04
2019-03-08T03:24:56.354Z,60.94
2019-03-08T03:27:27.639Z,60.95
2019-03-08T03:29:59.070Z,61.10
2019-03-08T03:32:30.354Z,61.58
2019-03-08T03:35:01.705Z,61.87
2019-03-08T03:37:33.328Z,62.19
2019-03-08T03:40:05.490Z,62.56
2019-03-08T03:42:37.211Z,63.18
2019-03-08T03:45:09.983Z,63.06
2019-03-08T03:47:41.336Z,63.25
2019-03-08T03:50:13.916Z,63.46
2019-03-08T03:52:45.571Z,63.51
2019-03-08T03:55:17.970Z,63.79
2019-03-08T03:57:50.024Z,63.70
2019-03-08T04:00:22.018Z,63.94
2019-03-08T04:02:53.856Z,64.41
2019-03-08T04:05:25.950Z,65.64
2019-03-08T04:07:57.534Z,66.40
2019-03-08T04:10:28.739Z,66.88
2019-03-08T04:13:00.056Z,67.25
2019-03-08T04:15:31.886Z,67.36
2019-03-08T04:18:03.070Z,67.45
2019-03-08T04:20:34.695Z,68.12
2019-03-08T04:23:06.007Z,69.04
2019-03-08T04:25:37.680Z,69.53
2019-03-08T04:28:09.424Z,69.69
2019-03-08T04:30:41.368Z,70.46
2019-03-08T04:33:12.584Z,70.54
2019-03-08T04:35:44.284Z,70.82
2019-03-08T04:38:15.536Z,70.84
2019-03-08T04:40:47.071Z,70.69
2019-03-08T04:43:18.631Z,70.92
2019-03-08T04:45:50.528Z,71.14
2019-03-08T04:48:22.488Z,71.11
2019-03-08T04:50:53.782Z,71.29
2019-03-08T04:53:24.998Z,70.96
2019-03-08T04:55:56.260Z,71.21
2019-03-08T04:58:27.691Z,71.01
2019-03-08T05:00:59.487Z,70.90
2019-03-08T05:03:30.797Z,70.94
2019-03-08T05:06:02.363Z,71.54
2019-03-08T05:08:33.696Z,71.08
2019-03-08T05:11:04.979Z,70.27
2019-03-08T05:13:36.270Z,70.47
2019-03-08T05:16:07.593Z,70.72
2019-03-08T05:18:38.885Z,70.38
2019-03-08T05:21:10.474Z,70.54
2019-03-08T05:23:41.713Z,70.58
2019-03-08T05:26:13.879Z,70.84
2019-03-08T05:28:45.367Z,70.96
2019-03-08T05:31:16.611Z,71.49
2019-03-08T05:33:49.330Z,71.60
2019-03-08T05:36:20.921Z,70.91
2019-03-08T05:38:52.508Z,71.37
2019-03-08T05:41:26.100Z,71.27
2019-03-08T05:43:58.376Z,70.81
2019-03-08T05:46:29.654Z,70.84
2019-03-08T05:49:01.178Z,71.28
2019-03-08T05:51:32.514Z,71.02
2019-03-08T05:54:04.959Z,70.71
2019-03-08T06:03:01.094Z,70.09
2019-03-08T06:05:32.442Z,70.16
2019-03-08T06:08:03.693Z,70.05
2019-03-08T06:10:39.086Z,70.36
2019-03-08T06:13:10.334Z,70.11
2019-03-08T06:15:42.137Z,70.40
2019-03-08T06:18:13.426Z,70.07
2019-03-08T06:20:44.696Z,70.40
2019-03-08T06:23:16.042Z,70.62
2019-03-08T06:25:47.436Z,69.83
2019-03-08T06:28:19.217Z,70.04
2019-03-08T06:30:51.163Z,69.81
2019-03-08T06:33:22.513Z,69.58
2019-03-08T06:35:54.122Z,69.56
2019-03-08T06:38:25.726Z,69.39
2019-03-08T06:40:57.602Z,69.32
2019-03-08T06:43:29.201Z,69.38
2019-03-08T06:46:00.495Z,69.38
2019-03-08T06:48:32.041Z,69.06
2019-03-08T06:51:03.407Z,69.14
2019-03-08T06:53:35.152Z,68.81
2019-03-08T06:56:07.120Z,68.89
2019-03-08T06:58:47.632Z,68.22
2019-03-08T07:01:32.600Z,68.51
2019-03-08T07:04:03.869Z,68.09
2019-03-08T07:06:35.793Z,68.01
2019-03-08T07:09:09.185Z,68.17
2019-03-08T07:11:40.752Z,68.13
2019-03-08T07:14:12.199Z,67.98
2019-03-08T07:16:43.914Z,68.32
2019-03-08T07:19:15.240Z,68.28
2019-03-08T07:21:53.186Z,68.12
2019-03-08T07:24:39.666Z,67.97
2019-03-08T07:27:29.863Z,67.78
2019-03-08T07:30:32.146Z,67.46
2019-03-08T07:33:18.432Z,67.39
2019-03-08T07:35:58.953Z,67.72
2019-03-08T07:38:57.963Z,67.63
2019-03-08T07:41:50.572Z,68.11
2019-03-08T07:44:32.450Z,67.93
2019-03-08T07:47:25.713Z,68.18
2019-03-08T07:50:17.321Z,69.10
2019-03-08T07:53:00.926Z,70.12
2019-03-08T07:56:03.094Z,70.10
2019-03-08T07:59:06.161Z,70.65
2019-03-08T08:01:50.655Z,71.00
2019-03-08T08:04:55.843Z,71.28
2019-03-08T08:07:49.492Z,71.68
2019-03-08T08:10:36.513Z,71.73
2019-03-08T08:13:25.199Z,71.40
2019-03-08T08:16:24.818Z,71.85
2019-03-08T08:19:21.145Z,72.60
2019-03-08T08:22:18.010Z,72.72
2019-03-08T08:25:08.919Z,73.26
2019-03-08T08:27:59.910Z,74.60
2019-03-08T08:30:52.531Z,74.83
2019-03-08T08:33:48.864Z,75.40
2019-03-08T08:36:38.585Z,74.95
2019-03-08T08:39:33.593Z,74.27
2019-03-08T08:42:16.208Z,73.58
2019-03-08T08:44:57.767Z,73.74
2019-03-08T08:47:46.645Z,73.81
2019-03-08T08:50:36.596Z,74.45
2019-03-08T08:53:27.048Z,74.21
2019-03-08T08:56:35.689Z,74.46
2019-03-08T08:59:43.981Z,74.67
2019-03-08T09:02:53.504Z,74.92
2019-03-08T09:05:44.572Z,75.76
2019-03-08T09:08:19.650Z,75.28
2019-03-08T09:11:07.675Z,75.61
2019-03-08T09:13:56.579Z,74.57
2019-03-08T09:16:49.439Z,74.16
2019-03-08T09:19:33.386Z,74.25
2019-03-08T09:22:14.543Z,74.43
2019-03-08T09:24:51.455Z,73.67
2019-03-08T09:27:41.865Z,73.85
2019-03-08T09:30:23.153Z,74.04
2019-03-08T09:33:22.913Z,73.98
2019-03-08T09:36:22.205Z,73.73
2019-03-08T09:39:04.539Z,73.48
2019-03-08T09:42:03.967Z,73.87
2019-03-08T09:44:53.105Z,73.51
2019-03-08T09:47:39.488Z,74.16
2019-03-08T09:50:35.890Z,73.99
2019-03-08T09:53:29.373Z,73.58
2019-03-08T09:56:11.277Z,73.76
2019-03-08T09:59:00.459Z,73.46
2019-03-08T10:01:49.023Z,72.95
2019-03-08T10:04:29.598Z,72.83
2019-03-08T10:07:10.486Z,72.90
2019-03-08T10:09:57.109Z,72.81
2019-03-08T10:12:50.478Z,71.98
2019-03-08T10:15:31.926Z,71.87
2019-03-08T10:18:17.590Z,70.97
2019-03-08T10:21:14.430Z,69.73
2019-03-08T10:24:17.659Z,69.44
2019-03-08T10:27:20.355Z,67.78
2019-03-08T10:30:08.862Z,67.73
2019-03-08T10:33:01.618Z,66.97
2019-03-08T10:35:52.172Z,65.64
2019-03-08T10:38:46.302Z,64.53
2019-03-08T10:41:27.429Z,63.65
2019-03-08T10:44:15.590Z,63.68
2019-03-08T10:47:05.878Z,63.92
2019-03-08T10:49:54.893Z,64.87
2019-03-08T10:52:42.307Z,65.60
2019-03-08T10:58:15.528Z,67.72
2019-03-08T11:01:01.307Z,65.73
2019-03-08T11:03:57.794Z,67.12
2019-03-08T11:07:00.112Z,66.98
2019-03-08T11:10:05.598Z,67.01
2019-03-08T11:13:04.734Z,66.26
2019-03-08T11:15:53.353Z,66.21
2019-03-08T11:18:43.474Z,66.45
2019-03-08T11:21:42.938Z,65.98
2019-03-08T11:24:26.319Z,65.35
2019-03-08T11:27:16.859Z,65.77
2019-03-08T11:30:07.802Z,65.08
2019-03-08T11:32:50.204Z,63.76
2019-03-08T11:35:38.981Z,62.54
2019-03-08T11:38:25.655Z,62.02
2019-03-08T11:41:09.570Z,60.89
2019-03-08T11:43:50.217Z,59.91
2019-03-08T11:46:27.909Z,59.40
2019-03-08T11:49:21.623Z,58.62
2019-03-08T11:52:30.671Z,58.75
2019-03-08T11:55:30.514Z,58.47
2019-03-08T11:58:16.538Z,58.20
2019-03-08T12:01:16.582Z,56.40
2019-03-08T12:04:15.566Z,56.13
2019-03-08T12:06:57.662Z,56.57
2019-03-08T12:09:56.960Z,56.84
2019-03-08T12:12:50.631Z,56.14
2019-03-08T12:15:50.344Z,56.59
2019-03-08T12:18:34.222Z,55.54
2019-03-08T12:21:30.693Z,52.95
2019-03-08T12:24:22.987Z,51.94
2019-03-08T12:27:15.768Z,50.37
2019-03-08T12:30:05.994Z,49.72
2019-03-08T12:32:47.356Z,50.40
2019-03-08T12:35:49.828Z,49.76
2019-03-08T12:38:52.415Z,48.53
2019-03-08T12:41:31.866Z,49.41
2019-03-08T12:44:28.577Z,49.46
2019-03-08T12:47:18.020Z,49.84
2019-03-08T12:50:07.023Z,49.94
2019-03-08T12:52:57.207Z,50.36
2019-03-08T12:55:56.923Z,50.65
2019-03-08T12:58:47.168Z,50.40
2019-03-08T13:01:40.059Z,49.75
2019-03-08T13:04:42.617Z,47.80
2019-03-08T13:07:28.569Z,46.86
2019-03-08T13:10:10.049Z,46.52
2019-03-08T13:12:41.367Z,46.52
2019-03-08T13:15:14.459Z,46.65
2019-03-08T13:17:46.156Z,47.19
2019-03-08T13:20:18.768Z,47.59
2019-03-08T13:22:50.385Z,46.75
2019-03-08T13:25:22.302Z,46.83
2019-03-08T13:27:53.921Z,46.50
2019-03-08T13:30:25.226Z,45.65
2019-03-08T13:32:57.195Z,44.92
2019-03-08T13:35:28.804Z,45.14
2019-03-08T13:38:00.500Z,44.22
2019-03-08T13:40:31.953Z,45.37
2019-03-08T13:43:03.249Z,45.81
2019-03-08T13:45:34.527Z,46.12
2019-03-08T13:48:06.298Z,46.11
2019-03-08T13:50:37.561Z,46.68
2019-03-08T13:53:08.875Z,46.91
2019-03-08T13:55:40.295Z,47.50
2019-03-08T13:58:12.015Z,47.50
2019-03-08T14:00:43.408Z,47.48
2019-03-08T14:03:15.364Z,47.99
2019-03-08T14:05:46.977Z,48.24
2019-03-08T14:08:18.620Z,48.96
2019-03-08T14:10:49.991Z,49.01
2019-03-08T14:13:21.846Z,49.63
2019-03-08T14:15:53.147Z,49.62
2019-03-08T14:18:24.576Z,49.82
2019-03-08T14:20:55.922Z,50.59
2019-03-08T14:23:27.538Z,50.59
2019-03-08T14:25:59.347Z,51.06
2019-03-08T14:28:30.668Z,51.45
2019-03-08T14:31:12.830Z,50.80
2019-03-08T14:33:45.561Z,49.39
2019-03-08T14:36:16.847Z,48.90
2019-03-08T14:38:48.481Z,49.70
2019-03-08T14:41:41.660Z,49.53
2019-03-08T14:44:35.442Z,50.17
2019-03-08T14:47:29.446Z,49.79
2019-03-08T14:49:59.288Z,49.69
2019-03-08T14:52:31.725Z,49.92
2019-03-08T14:55:03.024Z,49.78
2019-03-08T14:57:34.287Z,50.20
2019-03-08T15:00:10.945Z,50.07
2019-03-08T15:02:47.223Z,48.94
2019-03-08T15:05:19.201Z,48.79
2019-03-08T15:07:49.994Z,48.53
2019-03-08T15:10:22.107Z,47.39
2019-03-08T15:12:53.807Z,47.50
2019-03-08T15:15:27.921Z,47.33
2019-03-08T15:17:59.883Z,47.74
2019-03-08T15:20:31.749Z,48.82
2019-03-08T15:23:03.316Z,48.45
2019-03-08T15:25:34.966Z,48.83
2019-03-08T15:28:06.672Z,49.24
2019-03-08T15:30:41.170Z,49.24
2019-03-08T15:33:12.514Z,49.99
2019-03-08T15:35:43.855Z,49.99
2019-03-08T15:38:15.120Z,49.75
2019-03-08T15:40:48.844Z,49.53
2019-03-08T15:43:20.266Z,50.61
2019-03-08T15:45:51.435Z,50.43
2019-03-08T15:48:23.075Z,50.85
2019-03-08T15:50:54.969Z,49.82
2019-03-08T15:53:26.245Z,50.72
2019-03-08T15:55:57.594Z,51.16
2019-03-08T15:58:29.156Z,51.26
2019-03-08T16:01:00.440Z,51.14
2019-03-08T16:03:33.942Z,51.36
2019-03-08T16:06:06.491Z,51.33
2019-03-08T16:08:39.668Z,51.34
2019-03-08T16:11:11.874Z,51.77
2019-03-08T16:13:43.416Z,51.47
2019-03-08T16:16:15.746Z,51.94
2019-03-08T16:18:48.205Z,51.92
2019-03-08T16:21:19.515Z,52.04
2019-03-08T16:23:51.806Z,51.79
2019-03-08T16:26:25.272Z,53.08
2019-03-08T16:28:57.825Z,53.31
2019-03-08T16:31:35.112Z,53.21
2019-03-08T16:34:08.643Z,53.04
2019-03-08T16:37:04.393Z,53.46
2019-03-08T16:40:12.536Z,52.45
2019-03-08T16:43:03.687Z,53.71
2019-03-08T16:45:54.843Z,54.02
2019-03-08T16:48:40.266Z,54.33
2019-03-08T16:51:23.910Z,54.47
2019-03-08T16:54:00.139Z,54.83
2019-03-08T16:56:51.717Z,54.10
2019-03-08T16:59:32.389Z,53.86
2019-03-08T17:02:14.987Z,52.89
2019-03-08T17:04:53.098Z,52.98
2019-03-08T17:07:58.184Z,51.63
2019-03-08T17:11:03.811Z,53.11
2019-03-08T17:14:00.477Z,52.37
2019-03-08T17:16:52.940Z,53.33
2019-03-08T17:19:45.862Z,53.39
2019-03-08T17:22:45.164Z,53.17
2019-03-08T17:25:32.218Z,53.94
2019-03-08T17:28:25.382Z,53.37
2019-03-08T17:31:09.889Z,54.67
2019-03-08T17:34:04.040Z,54.87
2019-03-08T17:36:49.809Z,55.56
2019-03-08T17:39:47.412Z,55.56
2019-03-08T17:42:46.419Z,55.27
2019-03-08T17:45:33.789Z,55.53
2019-03-08T17:48:40.111Z,56.38
2019-03-08T17:51:36.469Z,56.86
2019-03-08T17:54:29.678Z,58.19
2019-03-08T17:57:15.125Z,58.77
2019-03-08T18:00:05.320Z,59.22
2019-03-08T18:03:01.734Z,59.28
2019-03-08T18:06:07.188Z,59.08
2019-03-08T18:08:54.843Z,59.09
2019-03-08T18:12:05.395Z,59.55
2019-03-08T18:14:55.561Z,59.78
2019-03-08T18:17:43.001Z,59.70
2019-03-08T18:20:42.333Z,59.80
2019-03-08T18:23:24.836Z,60.11
2019-03-08T18:26:15.032Z,60.69
2019-03-08T18:29:11.360Z,60.75
2019-03-08T18:31:52.782Z,61.19
2019-03-08T18:34:46.679Z,61.70
2019-03-08T18:37:28.395Z,62.10
2019-03-08T18:40:18.143Z,63.02
2019-03-08T18:43:02.196Z,63.44
2019-03-08T18:45:52.379Z,63.71
2019-03-08T18:48:43.935Z,64.47
2019-03-08T18:51:33.121Z,64.90
2019-03-08T18:54:12.868Z,65.04
2019-03-08T18:57:02.052Z,65.35
2019-03-08T18:59:51.141Z,65.62
2019-03-08T19:02:56.589Z,66.09
2019-03-08T19:05:53.045Z,66.40
2019-03-08T19:08:41.938Z,66.81
2019-03-08T19:11:41.979Z,67.53
2019-03-08T19:14:34.114Z,67.66
2019-03-08T19:17:23.999Z,67.94
2019-03-08T19:20:26.739Z,67.77
2019-03-08T19:23:14.764Z,67.45
2019-03-08T19:26:04.983Z,67.97
2019-03-08T19:28:51.748Z,67.82
2019-03-08T19:31:51.458Z,67.93
2019-03-08T19:34:53.940Z,67.94
2019-03-08T19:37:50.713Z,68.22
2019-03-08T19:40:50.235Z,68.14
2019-03-08T19:43:44.426Z,67.72
2019-03-08T19:46:34.804Z,68.26
2019-03-08T19:49:20.961Z,67.95
2019-03-08T19:52:20.201Z,67.82
2019-03-08T19:54:58.774Z,67.70
2019-03-08T19:58:01.295Z,67.38
2019-03-08T20:01:03.708Z,67.12
2019-03-08T20:03:53.012Z,67.06
2019-03-08T20:06:39.070Z,67.13
2019-03-08T20:09:32.293Z,67.05
2019-03-08T20:12:15.438Z,66.95
2019-03-08T20:15:06.085Z,66.79
2019-03-08T20:17:45.273Z,66.90
2019-03-08T20:20:42.541Z,67.07
2019-03-08T20:23:31.420Z,67.03
2019-03-08T20:26:24.496Z,67.28
2019-03-08T20:29:23.817Z,67.60
2019-03-08T20:32:16.814Z,67.73
2019-03-08T20:35:12.809Z,68.10
2019-03-08T20:38:12.308Z,68.32
2019-03-08T20:41:05.916Z,68.50
2019-03-08T20:43:54.543Z,68.63
2019-03-08T20:46:31.329Z,68.78
2019-03-08T20:49:03.822Z,68.80
2019-03-08T20:51:35.278Z,68.88
2019-03-08T20:54:07.387Z,69.09
2019-03-08T20:56:39.067Z,69.35
2019-03-08T20:59:13.329Z,69.64
2019-03-08T21:01:44.895Z,69.54
2019-03-08T21:04:16.644Z,69.33
2019-03-08T21:06:48.412Z,69.70
2019-03-08T21:09:19.989Z,69.86
2019-03-08T21:11:51.611Z,69.79
2019-03-08T21:14:22.972Z,69.84
2019-03-08T21:16:54.555Z,69.69
2019-03-08T21:19:27.684Z,69.58
2019-03-08T21:21:59.440Z,69.46
2019-03-08T21:24:30.873Z,69.66
2019-03-08T21:27:02.302Z,69.58
2019-03-08T21:29:37.040Z,69.59
2019-03-08T21:32:08.647Z,69.68
2019-03-08T21:34:40.617Z,69.69
2019-03-08T21:37:12.003Z,69.84
2019-03-08T21:39:43.684Z,69.62
2019-03-08T21:42:15.065Z,69.64
2019-03-08T21:44:46.469Z,69.55
2019-03-08T21:47:18.042Z,69.45
2019-03-08T21:49:49.333Z,69.24
2019-03-08T21:52:22.337Z,68.87
2019-03-08T21:54:54.052Z,68.85
2019-03-08T21:57:25.485Z,68.80
2019-03-08T21:59:57.263Z,68.72
2019-03-08T22:02:28.957Z,68.72
2019-03-08T22:05:02.677Z,68.48
2019-03-08T22:07:34.798Z,68.01
2019-03-08T22:10:15.812Z,67.78
2019-03-08T22:12:47.836Z,67.65
2019-03-08T22:15:19.150Z,67.53
2019-03-08T22:17:50.610Z,67.13
2019-03-08T22:20:22.622Z,67.23
2019-03-08T22:22:53.948Z,67.08
2019-03-08T22:25:25.901Z,67.00
2019-03-08T22:27:57.552Z,66.83
2019-03-08T22:30:29.216Z,66.59
2019-03-08T22:33:00.991Z,66.69
2019-03-08T22:35:32.414Z,66.38
2019-03-08T22:38:03.708Z,66.31
2019-03-08T22:40:35.874Z,65.93
2019-03-08T22:43:07.508Z,65.49
2019-03-08T22:45:38.822Z,65.28
2019-03-08T22:48:10.302Z,65.15
2019-03-08T22:50:41.686Z,65.01
2019-03-08T22:53:13.023Z,64.84
2019-03-08T22:55:44.361Z,65.06
2019-03-08T22:58:16.012Z,64.36
2019-03-08T23:01:02.799Z,64.20
2019-03-08T23:03:34.480Z,64.04
2019-03-08T23:06:06.059Z,64.63
2019-03-08T23:08:37.937Z,64.94
2019-03-08T23:11:10.357Z,64.78
2019-03-08T23:13:42.081Z,64.63
2019-03-08T23:16:13.461Z,64.43
2019-03-08T23:18:45.264Z,64.30
2019-03-08T23:21:16.899Z,63.88
2019-03-08T23:23:49.268Z,63.86
2019-03-08T23:26:23.662Z,64.07
2019-03-08T23:29:17.797Z,64.04
2019-03-08T23:31:56.997Z,64.32
2019-03-08T23:34:28.905Z,64.57
2019-03-08T23:37:00.317Z,64.79
2019-03-08T23:39:32.623Z,65.02
2019-03-08T23:42:04.215Z,64.98
2019-03-08T23:44:35.607Z,65.09
2019-03-08T23:47:06.954Z,64.90
2019-03-08T23:49:38.359Z,64.97
2019-03-08T23:52:10.004Z,64.84
2019-03-08T23:54:41.735Z,64.56
2019-03-08T23:57:13.030Z,64.56
2019-03-08T23:59:45.124Z,64.65
